Seeley, California
Current Conditions -  °F | °C
As of 6:56 PM on Monday 20 Oct 2014 (Local Time) from KNJK Reporting Station
Few Clouds Few Clouds  
Wind Chill: 85°   Ceiling: Unl
Heat Index: 85°   Visibility: 10mi
Dew Point: 52°   Wind: 3mph
Humidity: 32%   Direction: 60°ENE
Pressure: 29.74"   Gusts: NA
Location:  32.79°N, 115.69°W
Report Text: KNJK 210156Z 06003KT 10SM FEW100 FEW200 29/11 A2974 RMK AO2 SLP087 T02940111 $
Loading
Personal Weather Stations






























Interactive Weather Map
Tropical Storm Tracking
New forecast layout! Learn more

10-Day Weather Forecast

Advertisements
Track Severe Weather on mobile